Time;durP1;ratioP1;P1;durP2;ratioP2;P2;SDS_P1;SDS_P2;PMS_P1;PMS_P2;Temp;Humidity;BMP_temperature;BMP_pressure;BME280_temperature;BME280_humidity;BME280_pressure;Samples;Min_cycle;Max_cycle;Signal;HPM_P1;HPM_P2
2023/09/26 00:02:22;;;;;;;5.45;3.25;;;15.80;99.90;;;;;;5101895;28;20121;-60
2023/09/26 00:04:48;;;;;;;5.65;3.45;;;15.80;99.90;;;;;;5100966;28;20069;-61
2023/09/26 00:07:13;;;;;;;4.75;3.50;;;15.80;99.90;;;;;;5079207;28;20043;-60
2023/09/26 00:09:39;;;;;;;4.65;3.60;;;15.80;99.90;;;;;;5100962;28;21639;-61
2023/09/26 00:12:05;;;;;;;5.78;3.60;;;15.70;99.90;;;;;;5091908;28;20040;-61
2023/09/26 00:14:31;;;;;;;5.50;3.53;;;15.70;99.90;;;;;;5070389;28;20174;-61
2023/09/26 00:16:57;;;;;;;5.15;3.92;;;15.60;99.90;;;;;;5088862;28;20466;-60
2023/09/26 00:19:23;;;;;;;5.78;3.60;;;15.60;99.90;;;;;;5086066;28;20051;-60
2023/09/26 00:21:49;;;;;;;4.60;3.35;;;15.60;99.90;;;;;;5087289;28;20406;-60
2023/09/26 00:24:15;;;;;;;3.75;3.25;;;15.60;99.90;;;;;;5064705;28;20127;-60
2023/09/26 00:26:41;;;;;;;4.00;3.10;;;15.50;99.90;;;;;;5089358;28;20044;-60
2023/09/26 00:29:07;;;;;;;3.83;3.45;;;15.50;99.90;;;;;;5070244;28;20462;-61
2023/09/26 00:31:32;;;;;;;3.88;3.40;;;15.50;99.90;;;;;;5087034;28;20035;-62
2023/09/26 00:33:58;;;;;;;4.50;3.60;;;15.50;99.90;;;;;;5090846;28;20039;-60
2023/09/26 00:36:24;;;;;;;3.80;3.05;;;15.40;99.90;;;;;;5087418;28;20136;-61
2023/09/26 00:38:50;;;;;;;4.03;3.38;;;15.40;99.90;;;;;;5087444;28;20048;-61
2023/09/26 00:41:15;;;;;;;5.90;3.40;;;15.30;99.90;;;;;;5072993;28;20056;-61
2023/09/26 00:43:41;;;;;;;3.53;3.10;;;15.30;99.90;;;;;;5074630;28;20067;-60
2023/09/26 00:46:08;;;;;;;4.80;3.45;;;15.30;99.90;;;;;;5097397;28;20028;-61
2023/09/26 00:48:36;;;;;;;4.97;3.72;;;15.20;99.90;;;;;;5076700;28;20036;-61
2023/09/26 00:51:02;;;;;;;5.55;3.65;;;15.20;99.90;;;;;;5096875;28;20035;-61
2023/09/26 00:53:29;;;;;;;4.72;3.90;;;15.10;99.90;;;;;;5081044;28;20039;-60
2023/09/26 00:55:59;;;;;;;5.68;3.83;;;15.10;99.90;;;;;;5096378;28;20046;-61
2023/09/26 00:58:25;;;;;;;5.60;3.80;;;15.10;99.90;;;;;;5077016;28;20383;-61
2023/09/26 01:00:55;;;;;;;5.50;4.05;;;15.00;99.90;;;;;;5097952;28;20517;-60
2023/09/26 01:03:21;;;;;;;4.72;3.95;;;15.00;99.90;;;;;;5098828;28;20039;-60
2023/09/26 01:05:47;;;;;;;5.07;3.75;;;15.00;99.90;;;;;;5097714;28;20058;-60
2023/09/26 01:08:13;;;;;;;5.97;4.18;;;15.00;99.90;;;;;;5100877;28;20059;-61
2023/09/26 01:10:39;;;;;;;4.10;3.67;;;15.00;99.90;;;;;;5094251;28;20089;-61
2023/09/26 01:13:05;;;;;;;6.85;4.30;;;15.00;99.90;;;;;;5095325;28;20050;-60
2023/09/26 01:15:36;;;;;;;4.30;3.90;;;15.00;99.90;;;;;;5094863;28;20066;-60
2023/09/26 01:18:16;;;;;;;6.90;4.75;;;15.00;99.90;;;;;;5074975;28;20032;-61
2023/09/26 01:20:45;;;;;;;6.53;4.97;;;15.00;99.90;;;;;;5066578;28;20047;-60
2023/09/26 01:23:12;;;;;;;7.32;5.28;;;15.00;99.90;;;;;;5096464;28;20052;-60
2023/09/26 01:25:38;;;;;;;5.82;5.07;;;15.00;99.90;;;;;;5097725;28;20433;-61
2023/09/26 01:28:08;;;;;;;7.20;4.93;;;15.10;99.90;;;;;;5077757;28;20136;-61
2023/09/26 01:30:38;;;;;;;6.45;5.13;;;15.00;99.90;;;;;;5094018;28;20035;-59
2023/09/26 01:33:12;;;;;;;6.85;5.22;;;15.00;99.90;;;;;;5095176;28;20040;-61
2023/09/26 01:35:38;;;;;;;6.90;5.78;;;15.00;99.90;;;;;;5092490;28;20043;-60
2023/09/26 01:38:04;;;;;;;7.30;5.75;;;15.00;99.90;;;;;;5095695;28;20038;-61
2023/09/26 01:40:30;;;;;;;8.18;6.35;;;15.00;99.90;;;;;;5095365;28;20126;-60
2023/09/26 01:42:56;;;;;;;6.85;6.15;;;14.90;99.90;;;;;;5096416;28;20056;-60
2023/09/26 01:45:23;;;;;;;8.10;6.28;;;14.90;99.90;;;;;;5094589;28;20057;-60
2023/09/26 01:47:50;;;;;;;7.20;5.97;;;14.90;99.90;;;;;;5077102;28;20047;-61
2023/09/26 01:50:17;;;;;;;7.13;6.38;;;14.90;99.90;;;;;;5094612;28;20092;-60
2023/09/26 01:52:44;;;;;;;7.18;5.82;;;14.90;99.90;;;;;;5076528;28;20060;-60
2023/09/26 01:55:18;;;;;;;10.93;6.47;;;14.90;99.90;;;;;;5094486;28;20062;-61
2023/09/26 01:57:44;;;;;;;7.43;6.57;;;14.90;99.90;;;;;;5095503;28;20040;-61
2023/09/26 02:00:11;;;;;;;8.32;6.60;;;15.00;99.90;;;;;;5097820;28;20140;-61
2023/09/26 02:02:45;;;;;;;7.15;6.45;;;15.00;99.90;;;;;;5095928;28;20043;-59
2023/09/26 02:05:13;;;;;;;7.93;7.03;;;15.00;99.90;;;;;;5075323;28;20055;-61
2023/09/26 02:07:39;;;;;;;9.88;6.82;;;15.00;99.90;;;;;;5080862;28;20047;-61
2023/09/26 02:10:05;;;;;;;9.13;6.40;;;15.00;99.90;;;;;;5068656;28;20128;-60
2023/09/26 02:12:31;;;;;;;8.18;6.97;;;15.00;99.90;;;;;;5097854;28;20092;-61
2023/09/26 02:14:57;;;;;;;9.13;7.53;;;15.00;99.90;;;;;;5079010;28;20453;-61
2023/09/26 02:17:23;;;;;;;8.07;7.18;;;15.00;99.90;;;;;;5095623;28;20044;-60
2023/09/26 02:19:48;;;;;;;8.75;7.03;;;15.00;99.90;;;;;;5092665;28;20596;-61
2023/09/26 02:22:14;;;;;;;9.30;7.82;;;15.00;99.90;;;;;;5093426;28;20047;-61
2023/09/26 02:24:40;;;;;;;9.20;7.97;;;15.00;99.90;;;;;;5094228;28;20557;-60
2023/09/26 02:27:05;;;;;;;8.38;7.43;;;14.90;99.90;;;;;;5091846;28;20076;-60
2023/09/26 02:29:31;;;;;;;10.68;8.00;;;14.90;99.90;;;;;;5095286;28;20128;-60
2023/09/26 02:31:56;;;;;;;11.15;7.90;;;14.90;99.90;;;;;;5079289;28;20059;-61
2023/09/26 02:34:22;;;;;;;9.95;8.32;;;14.90;99.90;;;;;;5094772;28;20060;-61
2023/09/26 02:36:49;;;;;;;9.88;8.88;;;14.90;99.90;;;;;;5075269;28;20052;-60
2023/09/26 02:39:14;;;;;;;10.85;8.23;;;14.90;99.90;;;;;;5090872;28;20077;-60
2023/09/26 02:41:40;;;;;;;10.13;8.85;;;14.80;99.90;;;;;;5093637;28;20134;-59
2023/09/26 02:44:06;;;;;;;9.18;8.18;;;14.80;99.90;;;;;;5075027;28;20199;-60
2023/09/26 02:46:32;;;;;;;11.82;8.63;;;14.70;99.90;;;;;;5077378;28;20493;-61
2023/09/26 02:49:00;;;;;;;10.40;8.40;;;14.70;99.90;;;;;;5091417;28;20169;-61
2023/09/26 02:51:26;;;;;;;12.38;9.57;;;14.70;99.90;;;;;;5093325;28;20117;-61
2023/09/26 02:53:52;;;;;;;9.70;7.85;;;14.60;99.90;;;;;;5077823;28;20040;-60
2023/09/26 02:56:17;;;;;;;12.07;8.88;;;14.50;99.90;;;;;;5093714;28;20055;-60
2023/09/26 02:58:43;;;;;;;9.80;8.80;;;14.60;99.90;;;;;;5091817;28;20064;-61
2023/09/26 03:01:15;;;;;;;9.60;8.13;;;14.50;99.90;;;;;;5098120;28;20039;-60
2023/09/26 03:03:41;;;;;;;10.52;9.43;;;14.40;99.90;;;;;;5077124;28;20044;-60
2023/09/26 03:06:06;;;;;;;10.20;8.85;;;14.40;99.90;;;;;;5080583;28;20123;-61
2023/09/26 03:08:32;;;;;;;10.45;8.75;;;14.30;99.90;;;;;;5098615;28;20042;-61
2023/09/26 03:10:59;;;;;;;10.40;9.30;;;14.30;99.90;;;;;;5089445;28;20046;-60
2023/09/26 03:13:25;;;;;;;10.30;8.93;;;14.20;99.90;;;;;;5080807;28;20082;-61
2023/09/26 03:15:56;;;;;;;12.00;9.35;;;14.20;99.90;;;;;;5093669;28;20071;-61
2023/09/26 03:18:22;;;;;;;12.95;9.63;;;14.10;99.90;;;;;;5105967;28;20032;-61
2023/09/26 03:20:48;;;;;;;11.10;9.52;;;14.10;99.90;;;;;;5103994;28;20057;-61
2023/09/26 03:23:14;;;;;;;12.07;9.88;;;14.10;99.90;;;;;;5084562;28;20368;-61
2023/09/26 03:25:39;;;;;;;11.27;9.50;;;14.10;99.90;;;;;;5105794;28;20047;-60
2023/09/26 03:28:05;;;;;;;10.25;9.20;;;14.00;99.90;;;;;;5098622;28;20040;-60
2023/09/26 03:30:31;;;;;;;11.10;9.98;;;14.00;99.90;;;;;;5098555;28;20399;-61
2023/09/26 03:32:56;;;;;;;11.80;9.38;;;14.00;99.90;;;;;;5079885;28;20044;-60
2023/09/26 03:35:22;;;;;;;13.88;10.00;;;14.00;99.90;;;;;;5095695;28;20504;-60
2023/09/26 03:37:48;;;;;;;10.00;8.95;;;14.00;99.90;;;;;;5094979;28;20036;-61
2023/09/26 03:40:13;;;;;;;12.13;9.13;;;13.90;99.90;;;;;;5105706;28;20401;-60
2023/09/26 03:42:39;;;;;;;10.23;9.05;;;13.80;99.90;;;;;;5111075;28;20043;-61
2023/09/26 03:45:06;;;;;;;10.93;9.20;;;13.80;99.90;;;;;;5100792;28;20046;-59
2023/09/26 03:47:32;;;;;;;11.30;9.70;;;13.80;99.90;;;;;;5108284;28;20164;-60
2023/09/26 03:49:58;;;;;;;11.13;9.10;;;13.70;99.90;;;;;;5093826;28;20538;-61
2023/09/26 03:52:23;;;;;;;10.73;9.40;;;13.70;99.90;;;;;;5106328;28;20036;-60
2023/09/26 03:54:50;;;;;;;13.00;10.10;;;13.70;99.90;;;;;;5098919;28;20078;-61
2023/09/26 03:57:15;;;;;;;10.30;9.30;;;13.60;99.90;;;;;;5092457;28;20040;-60
2023/09/26 03:59:41;;;;;;;10.88;9.68;;;13.50;99.90;;;;;;5078226;28;20062;-60
2023/09/26 04:02:07;;;;;;;11.63;9.50;;;13.50;99.90;;;;;;5108537;28;20363;-60
2023/09/26 04:04:34;;;;;;;10.98;9.35;;;13.40;99.90;;;;;;5087418;28;20130;-60
2023/09/26 04:07:00;;;;;;;14.80;9.82;;;13.40;99.90;;;;;;5090403;28;20048;-60
2023/09/26 04:09:26;;;;;;;12.55;10.48;;;13.40;99.90;;;;;;5099494;28;20051;-60
2023/09/26 04:11:51;;;;;;;11.15;9.90;;;13.30;99.90;;;;;;5102947;28;20064;-61
2023/09/26 04:14:17;;;;;;;10.90;9.73;;;13.30;99.90;;;;;;5076868;28;20050;-60
2023/09/26 04:16:42;;;;;;;11.52;9.57;;;13.30;99.90;;;;;;5110120;28;20548;-60
2023/09/26 04:19:11;;;;;;;11.48;10.25;;;13.30;99.90;;;;;;5101699;28;20084;-60
2023/09/26 04:21:37;;;;;;;11.07;9.15;;;13.20;99.90;;;;;;5085266;28;20043;-60
2023/09/26 04:24:04;;;;;;;14.98;10.25;;;13.20;99.90;;;;;;5089959;28;20043;-60
2023/09/26 04:26:30;;;;;;;11.05;9.82;;;13.20;99.90;;;;;;5106539;28;20085;-60
2023/09/26 04:28:55;;;;;;;12.13;9.77;;;13.20;99.90;;;;;;5094635;28;20449;-60
2023/09/26 04:31:21;;;;;;;10.57;9.50;;;13.20;99.90;;;;;;5102860;28;20031;-60
2023/09/26 04:33:50;;;;;;;13.57;9.77;;;13.20;99.90;;;;;;5093245;28;20136;-61
2023/09/26 04:36:16;;;;;;;14.07;10.45;;;13.20;99.90;;;;;;5077985;28;20056;-59
2023/09/26 04:38:43;;;;;;;10.43;9.40;;;13.20;99.90;;;;;;5103041;28;20046;-60
2023/09/26 04:41:09;;;;;;;11.15;10.05;;;13.10;99.90;;;;;;5075569;28;20051;-60
2023/09/26 04:43:36;;;;;;;11.82;10.05;;;13.10;99.90;;;;;;5081003;28;20044;-61
2023/09/26 04:46:01;;;;;;;12.55;9.90;;;13.10;99.90;;;;;;5108282;28;20039;-60
2023/09/26 04:48:27;;;;;;;11.07;9.90;;;13.10;99.90;;;;;;5107129;28;20038;-61
2023/09/26 04:50:54;;;;;;;11.40;10.10;;;13.00;99.90;;;;;;5089571;28;20056;-61
2023/09/26 04:53:19;;;;;;;13.32;9.70;;;13.00;99.90;;;;;;5078166;28;20058;-61
2023/09/26 04:55:45;;;;;;;10.60;9.48;;;13.00;99.90;;;;;;5100212;28;20040;-59
2023/09/26 04:58:11;;;;;;;11.48;9.30;;;13.00;99.90;;;;;;5087245;28;20043;-60
2023/09/26 05:00:36;;;;;;;11.05;9.95;;;12.90;99.90;;;;;;5104194;28;20067;-60
2023/09/26 05:03:02;;;;;;;11.23;9.80;;;12.90;99.90;;;;;;5104112;28;20031;-60
2023/09/26 05:05:28;;;;;;;11.25;10.05;;;12.90;99.90;;;;;;5102255;28;20046;-60
2023/09/26 05:07:55;;;;;;;10.27;9.13;;;12.80;99.90;;;;;;5096771;28;20047;-60
2023/09/26 05:10:20;;;;;;;11.05;9.50;;;12.80;99.90;;;;;;5100813;28;20096;-60
2023/09/26 05:12:46;;;;;;;11.32;9.45;;;12.80;99.90;;;;;;5075880;28;20044;-61
2023/09/26 05:15:15;;;;;;;11.40;10.18;;;12.80;99.90;;;;;;5093428;28;20580;-61
2023/09/26 05:17:51;;;;;;;13.32;10.52;;;12.70;99.90;;;;;;5100612;28;20040;-61
2023/09/26 05:20:18;;;;;;;10.73;9.63;;;12.70;99.90;;;;;;5083987;28;20055;-60
2023/09/26 05:22:46;;;;;;;11.80;9.88;;;12.70;99.90;;;;;;5107494;28;20034;-60
2023/09/26 05:25:12;;;;;;;13.82;9.80;;;12.70;99.90;;;;;;5112550;28;20474;-60
2023/09/26 05:27:40;;;;;;;11.07;9.90;;;12.70;99.90;;;;;;5095515;28;20405;-60
2023/09/26 05:30:06;;;;;;;12.13;10.77;;;12.70;99.90;;;;;;5105893;28;20523;-61
2023/09/26 05:32:32;;;;;;;12.00;10.05;;;12.70;99.90;;;;;;5092742;28;20406;-60
2023/09/26 05:34:58;;;;;;;12.05;10.40;;;12.70;99.90;;;;;;5075783;28;20122;-60
2023/09/26 05:37:24;;;;;;;11.93;10.10;;;12.70;99.90;;;;;;5093199;28;20040;-60
2023/09/26 05:39:50;;;;;;;12.02;10.45;;;12.70;99.90;;;;;;5075358;28;20082;-60
2023/09/26 05:42:16;;;;;;;13.20;10.20;;;12.70;99.90;;;;;;5074986;28;20395;-61
2023/09/26 05:44:42;;;;;;;11.63;10.13;;;12.70;99.90;;;;;;5104708;28;20047;-61
2023/09/26 05:47:07;;;;;;;10.43;9.23;;;12.80;99.90;;;;;;5113554;28;20405;-61
2023/09/26 05:49:33;;;;;;;12.20;9.98;;;12.80;99.90;;;;;;5078315;28;20028;-60
2023/09/26 05:51:58;;;;;;;11.00;9.90;;;12.80;99.90;;;;;;5112354;28;20123;-60
2023/09/26 05:54:24;;;;;;;11.80;9.60;;;12.80;99.90;;;;;;5113601;28;20050;-61
2023/09/26 05:56:50;;;;;;;11.52;9.98;;;12.80;99.90;;;;;;5113524;28;20069;-61
2023/09/26 05:59:15;;;;;;;12.30;10.40;;;12.80;99.90;;;;;;5096401;28;20032;-62
2023/09/26 06:01:41;;;;;;;12.30;9.80;;;12.80;99.90;;;;;;5092890;28;20402;-61
2023/09/26 06:04:07;;;;;;;10.65;9.25;;;12.80;99.90;;;;;;5089451;28;20047;-60
2023/09/26 06:06:33;;;;;;;13.43;9.18;;;12.80;99.90;;;;;;5083757;28;20051;-59
2023/09/26 06:08:59;;;;;;;14.18;8.90;;;12.80;99.90;;;;;;5099258;28;20504;-60
2023/09/26 06:11:24;;;;;;;10.10;9.05;;;12.90;99.90;;;;;;5094749;28;20140;-61
2023/09/26 06:13:52;;;;;;;10.88;9.68;;;12.90;99.90;;;;;;5092728;28;20048;-60
2023/09/26 06:16:22;;;;;;;11.68;9.20;;;12.90;99.90;;;;;;5099588;28;20133;-61
2023/09/26 06:18:47;;;;;;;10.75;8.73;;;12.90;99.90;;;;;;5092852;28;20499;-60
2023/09/26 06:21:14;;;;;;;12.32;9.20;;;12.90;99.90;;;;;;5074534;28;20044;-60
2023/09/26 06:23:40;;;;;;;10.13;9.13;;;13.00;99.90;;;;;;5075554;28;20050;-61
2023/09/26 06:26:07;;;;;;;12.20;8.88;;;12.90;99.90;;;;;;5092668;28;20039;-60
2023/09/26 06:28:33;;;;;;;9.63;8.63;;;13.00;99.90;;;;;;5092137;28;20036;-61
2023/09/26 06:31:09;;;;;;;10.32;9.05;;;13.00;99.90;;;;;;5092851;28;20046;-60
2023/09/26 06:33:35;;;;;;;11.38;8.77;;;13.10;99.90;;;;;;5084704;28;20533;-61
2023/09/26 06:36:09;;;;;;;11.60;8.43;;;13.10;99.90;;;;;;5100524;28;20032;-61
2023/09/26 06:38:35;;;;;;;11.60;8.40;;;13.10;99.90;;;;;;5100842;28;20088;-61
2023/09/26 06:41:04;;;;;;;10.75;8.68;;;13.20;99.90;;;;;;5090430;28;20048;-61
2023/09/26 06:43:30;;;;;;;9.57;8.20;;;13.20;99.90;;;;;;5074034;28;20056;-60
2023/09/26 06:45:56;;;;;;;9.45;8.55;;;13.20;99.90;;;;;;5094065;28;20035;-60
2023/09/26 06:48:21;;;;;;;13.80;8.10;;;13.30;99.90;;;;;;5112630;28;20039;-60
2023/09/26 06:50:47;;;;;;;11.05;8.65;;;13.30;99.90;;;;;;5095124;28;20031;-60
2023/09/26 06:53:13;;;;;;;10.57;8.77;;;13.40;99.90;;;;;;5112386;28;20084;-61
2023/09/26 06:55:41;;;;;;;10.10;8.60;;;13.50;99.90;;;;;;5104115;28;20030;-61
2023/09/26 06:58:07;;;;;;;11.20;8.82;;;13.60;99.90;;;;;;5106962;28;20391;-61
2023/09/26 07:00:35;;;;;;;10.48;8.20;;;13.60;99.90;;;;;;5101960;28;20039;-60
2023/09/26 07:03:01;;;;;;;9.95;8.00;;;13.70;99.90;;;;;;5073937;28;20043;-60
2023/09/26 07:05:27;;;;;;;11.20;8.63;;;13.80;99.90;;;;;;5100186;28;20039;-61
2023/09/26 07:07:54;;;;;;;12.38;8.05;;;13.90;99.90;;;;;;5091512;28;20479;-60
2023/09/26 07:10:22;;;;;;;10.88;8.55;;;13.90;99.90;;;;;;5073161;28;20528;-60
2023/09/26 07:12:48;;;;;;;10.32;8.65;;;14.00;99.90;;;;;;5073131;28;20035;-61
2023/09/26 07:15:14;;;;;;;14.35;9.00;;;14.00;99.90;;;;;;5106100;28;20508;-61
2023/09/26 07:17:40;;;;;;;9.50;7.80;;;14.10;99.90;;;;;;5075782;28;20424;-60
2023/09/26 07:20:13;;;;;;;10.93;8.70;;;14.20;99.90;;;;;;5073326;28;20097;-60
2023/09/26 07:22:40;;;;;;;11.20;8.00;;;14.20;99.90;;;;;;5091348;28;20482;-60
2023/09/26 07:25:07;;;;;;;10.50;8.10;;;14.30;99.90;;;;;;5073579;28;20510;-60
2023/09/26 07:27:32;;;;;;;9.25;8.32;;;14.30;99.90;;;;;;5073542;28;20032;-61
2023/09/26 07:29:58;;;;;;;10.05;8.32;;;14.40;99.90;;;;;;5072527;28;20144;-61
2023/09/26 07:32:24;;;;;;;11.07;8.23;;;14.50;99.90;;;;;;5075007;28;20549;-60
2023/09/26 07:34:49;;;;;;;11.93;8.35;;;14.60;99.90;;;;;;5072782;28;20044;-60
2023/09/26 07:37:15;;;;;;;12.27;7.93;;;14.70;99.90;;;;;;5105017;28;20037;-60
2023/09/26 07:39:46;;;;;;;12.35;8.70;;;14.90;99.90;;;;;;5111128;28;20035;-60
2023/09/26 07:42:13;;;;;;;11.68;8.10;;;15.10;99.90;;;;;;5111440;28;20040;-60
2023/09/26 07:44:39;;;;;;;10.75;7.57;;;15.30;99.90;;;;;;5093004;28;20105;-60
2023/09/26 07:47:04;;;;;;;9.77;7.35;;;15.50;99.90;;;;;;5111502;28;20023;-60
2023/09/26 07:49:30;;;;;;;10.85;7.95;;;15.60;99.90;;;;;;5097298;28;20039;-60
2023/09/26 07:51:56;;;;;;;10.27;7.57;;;15.80;99.90;;;;;;5092671;28;20040;-60
2023/09/26 07:54:22;;;;;;;10.38;7.20;;;15.90;99.90;;;;;;5092941;28;20050;-61
2023/09/26 07:56:48;;;;;;;10.38;7.50;;;16.00;99.90;;;;;;5110940;28;20457;-60
2023/09/26 07:59:13;;;;;;;11.35;6.95;;;16.00;99.90;;;;;;5095050;28;20097;-59
2023/09/26 08:01:39;;;;;;;10.98;6.70;;;16.10;99.90;;;;;;5090887;28;20039;-61
2023/09/26 08:04:07;;;;;;;7.63;6.57;;;16.20;99.90;;;;;;5100755;28;20501;-60
2023/09/26 08:06:33;;;;;;;10.40;7.60;;;16.20;99.90;;;;;;5106208;28;20031;-60
2023/09/26 08:08:59;;;;;;;9.57;7.00;;;16.20;99.90;;;;;;5092135;28;20450;-61
2023/09/26 08:11:27;;;;;;;9.77;7.05;;;16.20;99.90;;;;;;5072423;28;20434;-60
2023/09/26 08:13:54;;;;;;;10.93;6.93;;;16.20;99.90;;;;;;5099123;28;20032;-61
2023/09/26 08:16:21;;;;;;;9.73;6.40;;;16.10;99.90;;;;;;5090599;28;20032;-60
2023/09/26 08:18:49;;;;;;;9.45;6.90;;;16.20;99.90;;;;;;5090596;28;20081;-61
2023/09/26 08:21:14;;;;;;;10.60;6.60;;;16.20;99.90;;;;;;5110787;28;20039;-60
2023/09/26 08:23:40;;;;;;;10.00;7.35;;;16.20;99.90;;;;;;5103893;28;20047;-60
2023/09/26 08:26:12;;;;;;;8.80;7.00;;;16.20;99.90;;;;;;5090758;28;20147;-61
2023/09/26 08:28:41;;;;;;;12.88;7.38;;;16.30;99.90;;;;;;5090846;28;20040;-61
2023/09/26 08:31:10;;;;;;;9.00;6.50;;;16.40;99.90;;;;;;5082270;28;20495;-61
2023/09/26 08:33:37;;;;;;;8.70;7.18;;;16.40;99.90;;;;;;5090630;28;20044;-60
2023/09/26 08:36:12;;;;;;;11.27;6.72;;;16.50;99.90;;;;;;5072258;28;20036;-61
2023/09/26 08:38:37;;;;;;;8.75;6.88;;;16.60;99.90;;;;;;5092964;28;20043;-60
2023/09/26 08:41:05;;;;;;;9.38;6.78;;;16.70;99.90;;;;;;5110328;28;20070;-60
2023/09/26 08:43:33;;;;;;;8.00;6.32;;;16.80;99.90;;;;;;5110840;28;20035;-61
2023/09/26 08:45:59;;;;;;;9.00;7.00;;;16.90;99.90;;;;;;5083981;28;20044;-61
2023/09/26 08:48:24;;;;;;;8.98;6.63;;;16.90;99.90;;;;;;5106371;28;20044;-62
2023/09/26 08:50:51;;;;;;;10.05;6.70;;;17.00;99.90;;;;;;5105279;28;20123;-61
2023/09/26 08:53:16;;;;;;;11.73;6.68;;;16.90;99.90;;;;;;5095033;28;20081;-62
2023/09/26 08:55:43;;;;;;;8.48;6.20;;;16.90;99.90;;;;;;5110714;28;20058;-61
2023/09/26 08:58:09;;;;;;;8.98;6.22;;;17.00;99.90;;;;;;5108741;28;20040;-60
2023/09/26 09:00:35;;;;;;;8.45;6.93;;;17.00;99.90;;;;;;5077566;28;20401;-60
2023/09/26 09:03:00;;;;;;;9.98;6.97;;;17.10;99.90;;;;;;5110405;28;20050;-60
2023/09/26 09:05:26;;;;;;;12.45;7.18;;;17.10;99.90;;;;;;5103431;28;20043;-61
2023/09/26 09:07:52;;;;;;;9.57;7.43;;;17.30;99.90;;;;;;5094385;28;20067;-60
2023/09/26 09:10:17;;;;;;;11.90;7.57;;;17.40;99.90;;;;;;5095383;28;20130;-60
2023/09/26 09:12:47;;;;;;;7.85;7.05;;;17.60;99.90;;;;;;5108514;28;20036;-60
2023/09/26 09:15:23;;;;;;;13.27;7.28;;;17.80;99.90;;;;;;5112194;28;20043;-61
2023/09/26 09:17:51;;;;;;;10.20;6.85;;;18.00;99.90;;;;;;5114501;28;20071;-60
2023/09/26 09:20:32;;;;;;;10.65;7.22;;;18.10;99.90;;;;;;5095711;28;20054;-60
2023/09/26 09:23:06;;;;;;;11.13;7.22;;;18.30;99.90;;;;;;5114227;28;20043;-59
2023/09/26 09:25:33;;;;;;;9.75;6.78;;;18.50;99.90;;;;;;5095728;28;20052;-61
2023/09/26 09:27:59;;;;;;;9.82;7.40;;;18.60;99.90;;;;;;5107759;28;20044;-62
2023/09/26 09:30:26;;;;;;;9.32;6.72;;;18.60;99.90;;;;;;5093323;28;20114;-61
2023/09/26 09:32:51;;;;;;;9.35;6.70;;;18.70;99.90;;;;;;5075422;28;20050;-60
2023/09/26 09:35:18;;;;;;;9.90;7.28;;;18.80;99.90;;;;;;5093565;28;20495;-61
2023/09/26 09:37:49;;;;;;;9.38;6.78;;;18.80;99.90;;;;;;5075356;28;20048;-61
2023/09/26 09:40:19;;;;;;;11.05;6.70;;;18.80;99.90;;;;;;5111243;28;20043;-60
2023/09/26 09:42:48;;;;;;;9.60;6.15;;;18.90;99.90;;;;;;5113518;28;20063;-60
2023/09/26 09:45:14;;;;;;;8.75;6.78;;;19.10;99.90;;;;;;5093601;28;20054;-60
2023/09/26 09:47:43;;;;;;;11.70;6.60;;;19.10;99.90;;;;;;5093552;28;20439;-60
2023/09/26 09:50:11;;;;;;;9.95;6.40;;;19.20;99.90;;;;;;5101743;28;20052;-61
2023/09/26 09:52:43;;;;;;;11.30;6.88;;;19.20;99.90;;;;;;5093127;28;20035;-60
2023/09/26 09:55:20;;;;;;;12.20;6.82;;;19.20;99.90;;;;;;5108542;28;20098;-60
2023/09/26 09:57:50;;;;;;;9.77;6.63;;;19.20;99.90;;;;;;5100279;28;20481;-61
2023/09/26 10:00:19;;;;;;;11.55;6.35;;;19.10;99.90;;;;;;5074852;28;20055;-60
2023/09/26 10:02:45;;;;;;;9.82;6.63;;;19.00;99.90;;;;;;5094518;28;20069;-60
2023/09/26 10:05:13;;;;;;;7.82;5.93;;;19.10;99.90;;;;;;5095446;28;20046;-60
2023/09/26 10:07:40;;;;;;;8.57;6.22;;;19.10;99.90;;;;;;5109718;28;20063;-60
2023/09/26 10:10:09;;;;;;;10.50;6.43;;;19.20;99.90;;;;;;5093075;28;20097;-60
2023/09/26 10:12:37;;;;;;;9.43;6.07;;;19.20;99.90;;;;;;5057223;28;20055;-61
2023/09/26 10:15:05;;;;;;;9.15;6.05;;;19.30;99.90;;;;;;5092960;28;20125;-60
2023/09/26 10:17:32;;;;;;;9.73;5.93;;;19.40;99.90;;;;;;5092387;28;20067;-61
2023/09/26 10:19:58;;;;;;;11.80;6.60;;;19.40;99.90;;;;;;5091329;28;20118;-61
2023/09/26 10:22:32;;;;;;;8.60;5.85;;;19.50;99.90;;;;;;5074216;28;20550;-62
2023/09/26 10:25:00;;;;;;;10.43;6.15;;;19.60;99.90;;;;;;5074632;28;20549;-61
2023/09/26 10:27:32;;;;;;;7.78;5.38;;;19.70;99.90;;;;;;5074431;28;20376;-61
2023/09/26 10:30:00;;;;;;;12.18;6.20;;;19.80;99.90;;;;;;5106440;28;20043;-61
2023/09/26 10:32:38;;;;;;;11.88;6.78;;;19.80;99.90;;;;;;5112452;28;20036;-61
2023/09/26 10:35:15;;;;;;;9.35;6.40;;;19.70;99.90;;;;;;5112761;28;20035;-61
2023/09/26 10:37:45;;;;;;;11.30;5.93;;;19.70;99.90;;;;;;5112359;28;20043;-61
2023/09/26 10:40:12;;;;;;;9.25;5.78;;;19.60;99.90;;;;;;5104114;28;20071;-61
2023/09/26 10:42:42;;;;;;;9.00;5.90;;;19.50;99.90;;;;;;5112091;28;20047;-61
2023/09/26 10:45:11;;;;;;;9.60;6.32;;;19.60;99.90;;;;;;5112419;28;20054;-60
2023/09/26 10:47:39;;;;;;;10.70;6.45;;;19.60;99.90;;;;;;5103768;28;20071;-61
2023/09/26 10:50:13;;;;;;;9.73;6.50;;;19.60;99.90;;;;;;5112639;28;20048;-60
2023/09/26 10:52:46;;;;;;;13.05;7.53;;;19.60;99.90;;;;;;5112312;28;20087;-61
2023/09/26 10:55:20;;;;;;;9.80;6.65;;;19.70;99.90;;;;;;5112398;28;20028;-60
2023/09/26 10:57:47;;;;;;;11.45;6.18;;;19.80;99.90;;;;;;5092507;28;20578;-61
2023/09/26 11:00:17;;;;;;;9.32;6.30;;;19.90;99.90;;;;;;5106868;28;20028;-61
2023/09/26 11:02:45;;;;;;;10.20;6.70;;;20.00;99.90;;;;;;5112056;28;20477;-61
2023/09/26 11:05:12;;;;;;;10.32;6.38;;;19.90;99.90;;;;;;5112222;28;20074;-61
2023/09/26 11:07:39;;;;;;;9.15;7.15;;;19.90;99.90;;;;;;5112052;28;20040;-61
2023/09/26 11:10:06;;;;;;;8.85;6.68;;;19.90;99.90;;;;;;5111874;28;20027;-60
2023/09/26 11:12:32;;;;;;;9.60;7.13;;;19.80;99.90;;;;;;5096169;28;20067;-61
2023/09/26 11:15:02;;;;;;;9.95;6.82;;;19.80;99.90;;;;;;5103826;28;20070;-60
2023/09/26 11:17:29;;;;;;;10.23;7.10;;;19.80;99.90;;;;;;5093222;28;20058;-61
2023/09/26 11:19:59;;;;;;;9.27;7.20;;;19.80;99.90;;;;;;5093182;28;20043;-60
2023/09/26 11:22:25;;;;;;;9.27;6.32;;;19.80;99.90;;;;;;5111850;28;20554;-60
2023/09/26 11:25:04;;;;;;;7.22;6.40;;;19.70;99.90;;;;;;5111799;28;20047;-61
2023/09/26 11:27:30;;;;;;;9.43;6.80;;;19.90;99.90;;;;;;5092623;28;20032;-61
2023/09/26 11:30:00;;;;;;;8.70;7.10;;;19.80;99.90;;;;;;5091037;28;20115;-61
2023/09/26 11:32:25;;;;;;;7.82;6.18;;;19.80;99.90;;;;;;5098426;28;20049;-61
2023/09/26 11:34:51;;;;;;;10.88;6.35;;;19.90;99.90;;;;;;5090807;28;20457;-61
2023/09/26 11:37:17;;;;;;;9.70;7.80;;;19.90;99.90;;;;;;5103829;28;20491;-61
2023/09/26 11:39:50;;;;;;;9.27;7.07;;;19.90;99.90;;;;;;5103515;28;20028;-61
2023/09/26 11:42:17;;;;;;;8.52;6.68;;;19.90;99.90;;;;;;5091290;28;20105;-61
2023/09/26 11:44:56;;;;;;;11.68;6.78;;;19.90;99.90;;;;;;5090906;28;20039;-61
2023/09/26 11:47:23;;;;;;;7.63;6.00;;;20.00;99.90;;;;;;5099468;28;20050;-60
2023/09/26 11:49:50;;;;;;;7.20;5.82;;;20.00;99.90;;;;;;5092352;28;20054;-62
2023/09/26 11:52:17;;;;;;;9.30;6.15;;;20.10;99.90;;;;;;5111673;28;20039;-61
2023/09/26 11:54:44;;;;;;;8.43;6.63;;;20.10;99.90;;;;;;5110851;28;20031;-60
2023/09/26 11:57:12;;;;;;;8.95;6.35;;;20.20;99.90;;;;;;5090687;28;20111;-61
2023/09/26 11:59:39;;;;;;;7.40;6.65;;;20.30;99.90;;;;;;5072819;28;20051;-61
2023/09/26 12:02:04;;;;;;;9.07;6.35;;;20.50;99.90;;;;;;5090442;28;20066;-61
2023/09/26 12:04:32;;;;;;;7.10;6.15;;;20.50;99.90;;;;;;5091027;28;20093;-62
2023/09/26 12:06:58;;;;;;;7.25;6.43;;;20.60;99.90;;;;;;5090450;28;20043;-60
2023/09/26 12:09:23;;;;;;;7.85;6.40;;;20.50;99.90;;;;;;5091081;28;20036;-61
2023/09/26 12:11:52;;;;;;;7.05;6.03;;;20.60;99.90;;;;;;5072575;28;20052;-61
2023/09/26 12:14:18;;;;;;;8.18;6.38;;;20.60;99.90;;;;;;5093937;28;20040;-61
2023/09/26 12:16:44;;;;;;;10.52;7.10;;;20.60;99.90;;;;;;5110970;28;20478;-60
2023/09/26 12:19:12;;;;;;;8.30;6.60;;;20.60;99.90;;;;;;5110895;28;20088;-60
2023/09/26 12:21:38;;;;;;;9.50;6.85;;;20.60;99.90;;;;;;5111191;28;20130;-61
2023/09/26 12:24:04;;;;;;;7.80;5.97;;;20.60;99.90;;;;;;5081542;28;20205;-61
2023/09/26 12:26:30;;;;;;;8.55;6.28;;;20.60;99.90;;;;;;5085338;28;20051;-60
2023/09/26 12:28:56;;;;;;;8.82;5.88;;;20.70;99.90;;;;;;5110648;28;20125;-60
2023/09/26 12:31:22;;;;;;;7.55;5.85;;;20.80;99.90;;;;;;5097655;28;20032;-60
2023/09/26 12:33:47;;;;;;;8.93;6.40;;;20.90;99.90;;;;;;5090470;28;20044;-61
2023/09/26 12:36:13;;;;;;;10.40;6.93;;;20.90;99.90;;;;;;5072083;28;20044;-61
2023/09/26 12:38:40;;;;;;;8.75;5.65;;;20.80;99.90;;;;;;5090632;28;20076;-61
2023/09/26 12:41:06;;;;;;;10.07;5.90;;;20.80;99.90;;;;;;5099003;28;20055;-60